createdAt,value
2023-04-19T00:00:53.210Z,10.17
2023-04-19T00:01:53.967Z,10.09
2023-04-19T00:02:55.594Z,10.21
2023-04-19T00:03:55.695Z,10.25
2023-04-19T00:04:56.217Z,10.21
2023-04-19T00:05:56.556Z,10.25
2023-04-19T00:06:57.184Z,10.2
2023-04-19T00:07:57.994Z,10.23
2023-04-19T00:08:58.896Z,10.28
2023-04-19T00:09:59.199Z,10.21
2023-04-19T00:10:59.748Z,10.27
2023-04-19T00:12:00.624Z,10.25
2023-04-19T00:13:01.330Z,10.24
2023-04-19T00:14:02.031Z,10.23
2023-04-19T00:15:02.778Z,10.33
2023-04-19T00:16:03.271Z,10.21
2023-04-19T00:17:04.182Z,10.23
2023-04-19T00:18:04.406Z,10.23
2023-04-19T00:19:05.005Z,10.2
2023-04-19T00:20:05.495Z,10.34
2023-04-19T00:21:06.440Z,10.34
2023-04-19T00:22:06.623Z,10.27
2023-04-19T00:23:07.410Z,10.34
2023-04-19T00:24:08.118Z,10.23
2023-04-19T00:25:08.186Z,10.24
2023-04-19T00:26:08.901Z,10.31
2023-04-19T00:27:09.457Z,10.24
2023-04-19T00:28:10.185Z,10.24
2023-04-19T00:29:10.826Z,10.24
2023-04-19T00:30:11.076Z,10.25
2023-04-19T00:31:12.370Z,10.3
2023-04-19T00:32:11.984Z,10.27
2023-04-19T00:33:13.575Z,10.25
2023-04-19T00:34:14.698Z,10.25
2023-04-19T00:35:14.587Z,10.25
2023-04-19T00:36:15.378Z,10.27
2023-04-19T00:37:15.950Z,10.15
2023-04-19T00:38:16.886Z,10.13
2023-04-19T00:39:17.172Z,10.12
2023-04-19T00:40:17.635Z,10.2
2023-04-19T00:41:17.577Z,10.12
2023-04-19T00:42:17.928Z,10.12
2023-04-19T00:43:18.614Z,10.17
2023-04-19T00:44:19.483Z,10.21
2023-04-19T00:45:20.196Z,10.13
2023-04-19T00:46:20.585Z,10.1
2023-04-19T00:47:21.183Z,10.17
2023-04-19T00:48:21.990Z,10.15
2023-04-19T00:49:22.666Z,10.12
2023-04-19T00:50:23.052Z,10.12
2023-04-19T00:51:23.792Z,10.13
2023-04-19T00:52:24.505Z,10.05
2023-04-19T00:53:24.487Z,10.02
2023-04-19T00:54:25.269Z,10.05
2023-04-19T00:55:26.158Z,10.05
2023-04-19T00:56:26.698Z,9.97
2023-04-19T00:57:27.037Z,9.97
2023-04-19T00:58:27.975Z,9.95
2023-04-19T00:59:28.675Z,9.95
2023-04-19T01:00:29.145Z,10.02
2023-04-19T01:01:30.202Z,10.02
2023-04-19T01:02:31.328Z,9.99
2023-04-19T01:03:31.626Z,10.07
2023-04-19T01:04:31.969Z,9.97
2023-04-19T01:05:32.082Z,9.94
2023-04-19T01:06:32.619Z,10.02
2023-04-19T01:07:32.932Z,9.97
2023-04-19T01:08:33.676Z,9.88
2023-04-19T01:09:34.175Z,9.84
2023-04-19T01:10:34.989Z,9.82
2023-04-19T01:11:35.508Z,9.82
2023-04-19T01:12:35.737Z,9.91
2023-04-19T01:13:36.288Z,9.81
2023-04-19T01:14:36.784Z,9.73
2023-04-19T01:15:37.893Z,9.77
2023-04-19T01:16:37.490Z,9.73
2023-04-19T01:17:38.018Z,9.73
2023-04-19T01:18:38.502Z,9.64
2023-04-19T01:19:39.400Z,9.66
2023-04-19T01:20:40.283Z,9.7
2023-04-19T01:21:40.779Z,9.62
2023-04-19T01:22:41.482Z,9.69
2023-04-19T01:23:42.445Z,9.67
2023-04-19T01:24:42.925Z,9.66
2023-04-19T01:25:43.459Z,9.69
2023-04-19T01:26:44.147Z,9.62
2023-04-19T01:27:44.291Z,9.52
2023-04-19T01:28:45.021Z,9.51
2023-04-19T01:29:45.880Z,9.54
2023-04-19T01:30:46.334Z,9.51
2023-04-19T01:31:47.514Z,9.54
2023-04-19T01:32:47.545Z,9.58
2023-04-19T01:33:47.263Z,9.58
2023-04-19T01:34:48.184Z,9.54
2023-04-19T01:35:48.943Z,9.48
2023-04-19T01:36:50.074Z,9.47
2023-04-19T01:37:50.680Z,9.48
2023-04-19T01:38:51.189Z,9.52
2023-04-19T01:39:51.599Z,9.45
2023-04-19T01:40:52.286Z,9.51
2023-04-19T01:41:52.627Z,9.49
2023-04-19T01:42:53.167Z,9.55
2023-04-19T01:43:54.063Z,9.55
2023-04-19T01:44:55.174Z,9.54
2023-04-19T01:45:55.753Z,9.52
2023-04-19T01:46:56.402Z,9.54
2023-04-19T01:47:56.549Z,9.49
2023-04-19T01:48:56.553Z,9.55
2023-04-19T01:49:57.071Z,9.52
2023-04-19T01:50:58.296Z,9.49
2023-04-19T01:51:59.031Z,9.55
2023-04-19T01:52:59.533Z,9.48
2023-04-19T01:53:59.308Z,9.59
2023-04-19T01:55:00.013Z,9.56
2023-04-19T01:56:00.917Z,9.54
2023-04-19T01:57:00.829Z,9.52
2023-04-19T01:58:01.153Z,9.52
2023-04-19T01:59:01.636Z,9.54
2023-04-19T02:00:02.323Z,9.51
2023-04-19T02:01:03.216Z,9.54
2023-04-19T02:02:04.173Z,9.47
2023-04-19T02:03:04.720Z,9.51
2023-04-19T02:04:05.764Z,9.49
2023-04-19T02:05:05.618Z,9.54
2023-04-19T02:06:06.318Z,9.47
2023-04-19T02:07:07.256Z,9.48
2023-04-19T02:08:08.157Z,9.52
2023-04-19T02:09:08.927Z,9.49
2023-04-19T02:10:09.824Z,9.52
2023-04-19T02:11:10.038Z,9.54
2023-04-19T02:12:10.750Z,9.49
2023-04-19T02:13:10.859Z,9.55
2023-04-19T02:14:11.598Z,9.56
2023-04-19T02:15:11.725Z,9.54
2023-04-19T02:16:13.253Z,9.52
2023-04-19T02:17:13.085Z,9.63
2023-04-19T02:18:14.050Z,9.55
2023-04-19T02:19:13.746Z,9.59
2023-04-19T02:20:13.900Z,9.66
2023-04-19T02:21:14.304Z,9.62
2023-04-19T02:22:15.309Z,9.7
2023-04-19T02:23:16.052Z,9.67
2023-04-19T02:24:17.182Z,9.66
2023-04-19T02:25:16.719Z,9.64
2023-04-19T02:26:17.205Z,9.66
2023-04-19T02:27:17.920Z,9.73
2023-04-19T02:28:18.255Z,9.7
2023-04-19T02:29:18.814Z,9.72
2023-04-19T02:30:19.568Z,9.73
2023-04-19T02:31:19.945Z,9.74
2023-04-19T02:32:20.773Z,9.8
2023-04-19T02:33:21.566Z,9.88
2023-04-19T02:34:22.393Z,9.87
2023-04-19T02:35:22.062Z,9.88
2023-04-19T02:36:22.346Z,9.85
2023-04-19T02:37:23.209Z,9.87
2023-04-19T02:38:24.139Z,9.81
2023-04-19T02:39:24.991Z,9.87
2023-04-19T02:40:25.686Z,9.85
2023-04-19T02:41:25.908Z,9.9
2023-04-19T02:42:26.602Z,9.77
2023-04-19T02:43:26.919Z,9.91
2023-04-19T02:44:27.199Z,9.82
2023-04-19T02:45:27.742Z,9.81
2023-04-19T02:46:28.815Z,9.82
2023-04-19T02:47:29.028Z,9.73
2023-04-19T02:48:29.641Z,9.73
2023-04-19T02:49:30.342Z,9.72
2023-04-19T02:50:30.908Z,9.77
2023-04-19T02:51:31.354Z,9.82
2023-04-19T02:52:32.064Z,9.73
2023-04-19T02:53:32.578Z,9.85
2023-04-19T02:54:33.642Z,9.9
2023-04-19T02:55:34.544Z,9.91
2023-04-19T02:56:35.270Z,9.91
2023-04-19T02:57:35.880Z,9.87
2023-04-19T02:58:36.831Z,9.87
2023-04-19T02:59:37.568Z,9.84
2023-04-19T03:00:38.273Z,9.72
2023-04-19T03:01:38.833Z,9.9
2023-04-19T03:02:38.986Z,9.74
2023-04-19T03:03:39.139Z,9.76
2023-04-19T03:04:40.039Z,9.73
2023-04-19T03:05:40.540Z,9.81
2023-04-19T03:06:41.237Z,9.74
2023-04-19T03:07:44.859Z,9.74
2023-04-19T03:08:42.357Z,9.8
2023-04-19T03:09:43.131Z,9.74
2023-04-19T03:10:44.001Z,9.74
2023-04-19T03:11:45.070Z,9.81
2023-04-19T03:12:45.543Z,9.73
2023-04-19T03:13:46.111Z,9.74
2023-04-19T03:14:47.010Z,9.81
2023-04-19T03:15:48.038Z,9.8
2023-04-19T03:16:48.333Z,9.74
2023-04-19T03:17:48.785Z,9.74
2023-04-19T03:18:50.155Z,9.7
2023-04-19T03:19:49.873Z,9.77
2023-04-19T03:20:50.572Z,9.66
2023-04-19T03:21:51.347Z,9.73
2023-04-19T03:22:51.937Z,9.7
2023-04-19T03:23:52.728Z,9.62
2023-04-19T03:24:53.509Z,9.73
2023-04-19T03:25:53.804Z,9.72
2023-04-19T03:26:54.082Z,9.73
2023-04-19T03:27:54.796Z,9.7
2023-04-19T03:28:55.339Z,9.72
2023-04-19T03:29:55.913Z,9.8
2023-04-19T03:30:56.483Z,9.73
2023-04-19T03:31:56.531Z,9.73
2023-04-19T03:32:57.158Z,9.64
2023-04-19T03:33:57.968Z,9.74
2023-04-19T03:34:58.854Z,9.69
2023-04-19T03:35:59.357Z,9.76
2023-04-19T03:37:00.037Z,9.66
2023-04-19T03:38:00.611Z,9.69
2023-04-19T03:39:01.358Z,9.7
2023-04-19T03:40:02.530Z,9.64
2023-04-19T03:41:03.268Z,9.67
2023-04-19T03:42:03.936Z,9.7
2023-04-19T03:43:04.235Z,9.64
2023-04-19T03:44:04.962Z,9.69
2023-04-19T03:45:06.006Z,9.64
2023-04-19T03:46:06.674Z,9.58
2023-04-19T03:47:07.544Z,9.62
2023-04-19T03:48:09.199Z,9.59
2023-04-19T03:49:08.771Z,9.51
2023-04-19T03:50:09.327Z,9.56
2023-04-19T03:51:09.825Z,9.55
2023-04-19T03:52:10.056Z,9.54
2023-04-19T03:53:10.778Z,9.58
2023-04-19T03:54:11.557Z,9.48
2023-04-19T03:55:11.799Z,9.51
2023-04-19T03:56:11.883Z,9.45
2023-04-19T03:57:12.150Z,9.37
2023-04-19T03:58:13.438Z,9.45
2023-04-19T03:59:13.962Z,9.36
2023-04-19T04:00:14.887Z,9.36
2023-04-19T04:01:15.229Z,9.33
2023-04-19T04:02:16.291Z,9.36
2023-04-19T04:03:17.027Z,9.36
2023-04-19T04:04:17.830Z,9.33
2023-04-19T04:05:17.416Z,9.36
2023-04-19T04:06:17.869Z,9.39
2023-04-19T04:07:17.967Z,9.36
2023-04-19T04:08:18.480Z,9.44
2023-04-19T04:09:19.423Z,9.36
2023-04-19T04:10:19.459Z,9.33
2023-04-19T04:11:20.158Z,9.34
2023-04-19T04:12:20.168Z,9.49
2023-04-19T04:13:20.851Z,9.45
2023-04-19T04:14:21.742Z,9.45
2023-04-19T04:15:21.463Z,9.44
2023-04-19T04:16:21.751Z,9.42
2023-04-19T04:17:21.989Z,9.4
2023-04-19T04:18:22.814Z,9.47
2023-04-19T04:19:23.107Z,9.42
2023-04-19T04:20:23.944Z,9.44
2023-04-19T04:21:24.695Z,9.48
2023-04-19T04:22:25.400Z,9.47
2023-04-19T04:23:26.382Z,9.42
2023-04-19T04:24:27.085Z,9.4
2023-04-19T04:25:29.262Z,9.34
2023-04-19T04:27:28.671Z,9.36
2023-04-19T04:28:29.408Z,9.34
2023-04-19T04:29:29.781Z,9.34
2023-04-19T04:30:33.626Z,9.31
2023-04-19T04:33:33.029Z,9.36
2023-04-19T04:34:33.541Z,9.29
2023-04-19T04:35:34.640Z,9.29
2023-04-19T04:36:34.910Z,9.33
2023-04-19T04:37:35.815Z,9.33
2023-04-19T04:38:36.563Z,9.29
2023-04-19T04:39:37.106Z,9.3
2023-04-19T04:40:37.856Z,9.33
2023-04-19T04:41:38.531Z,9.3
2023-04-19T04:42:39.244Z,9.37
2023-04-19T04:43:39.775Z,9.36
2023-04-19T04:44:39.579Z,9.37
2023-04-19T04:45:40.586Z,9.39
2023-04-19T04:46:41.185Z,9.3
2023-04-19T04:47:41.993Z,9.34
2023-04-19T04:48:41.647Z,9.3
2023-04-19T04:49:41.946Z,9.36
2023-04-19T04:50:42.447Z,9.34
2023-04-19T04:51:42.730Z,9.33
2023-04-19T04:52:43.225Z,9.36
2023-04-19T04:53:43.728Z,9.27
2023-04-19T04:54:44.643Z,9.37
2023-04-19T04:55:44.602Z,9.34
2023-04-19T04:56:45.387Z,9.29
2023-04-19T04:57:46.196Z,9.36
2023-04-19T04:58:46.697Z,9.37
2023-04-19T04:59:47.422Z,9.27
2023-04-19T05:00:47.965Z,9.34
2023-04-19T05:01:49.224Z,9.31
2023-04-19T05:02:50.124Z,9.31
2023-04-19T05:03:50.261Z,9.37
2023-04-19T05:04:51.180Z,9.34
2023-04-19T05:05:51.949Z,9.39
2023-04-19T05:06:52.317Z,9.36
2023-04-19T05:07:53.001Z,9.42
2023-04-19T05:08:53.756Z,9.42
2023-04-19T05:09:54.087Z,9.39
2023-04-19T05:10:55.004Z,9.4
2023-04-19T05:11:55.722Z,9.4
2023-04-19T05:12:56.337Z,9.36
2023-04-19T05:13:56.460Z,9.4
2023-04-19T05:14:57.014Z,9.4
2023-04-19T05:15:58.031Z,9.37
2023-04-19T05:16:58.669Z,9.44
2023-04-19T05:17:59.641Z,9.44
2023-04-19T05:19:00.055Z,9.45
2023-04-19T05:20:00.363Z,9.47
2023-04-19T05:21:01.482Z,9.47
2023-04-19T05:22:02.000Z,9.47
2023-04-19T05:23:02.853Z,9.49
2023-04-19T05:24:03.623Z,9.51
2023-04-19T05:25:04.030Z,9.48
2023-04-19T05:26:04.154Z,9.56
2023-04-19T05:27:04.697Z,9.52
2023-04-19T05:28:05.467Z,9.55
2023-04-19T05:29:05.936Z,9.54
2023-04-19T05:30:06.911Z,9.49
2023-04-19T05:31:07.570Z,9.54
2023-04-19T05:32:08.705Z,9.51
2023-04-19T05:33:09.263Z,9.52
2023-04-19T05:34:10.021Z,9.49
2023-04-19T05:35:10.424Z,9.52
2023-04-19T05:36:11.189Z,9.51
2023-04-19T05:37:11.546Z,9.52
2023-04-19T05:38:12.271Z,9.48
2023-04-19T05:39:13.181Z,9.52
2023-04-19T05:40:14.308Z,9.54
2023-04-19T05:41:14.463Z,9.48
2023-04-19T05:42:15.182Z,9.49
2023-04-19T05:43:15.425Z,9.47
2023-04-19T05:44:16.471Z,9.49
2023-04-19T05:45:17.142Z,9.51
2023-04-19T05:46:17.994Z,9.47
2023-04-19T05:47:18.798Z,9.44
2023-04-19T05:48:19.821Z,9.47
2023-04-19T05:49:20.549Z,9.45
2023-04-19T05:50:20.889Z,9.34
2023-04-19T05:51:21.867Z,9.37
2023-04-19T05:52:22.378Z,9.34
2023-04-19T05:53:23.694Z,9.42
2023-04-19T05:54:24.018Z,9.42
2023-04-19T05:55:24.197Z,9.4
2023-04-19T05:56:24.380Z,9.34
2023-04-19T05:57:24.868Z,9.4
2023-04-19T05:58:25.680Z,9.39
2023-04-19T05:59:25.988Z,9.4
2023-04-19T06:00:27.035Z,9.4
2023-04-19T06:01:27.662Z,9.4
2023-04-19T06:02:29.203Z,9.36
2023-04-19T06:03:33.085Z,9.44
2023-04-19T06:04:30.938Z,9.4
2023-04-19T06:05:30.817Z,9.36
2023-04-19T06:06:30.907Z,9.45
2023-04-19T06:07:54.312Z,9.42
2023-04-19T06:09:31.814Z,9.34
2023-04-19T06:10:56.916Z,9.29
2023-04-19T06:11:51.879Z,9.31
2023-04-19T06:12:35.982Z,9.27
2023-04-19T06:13:36.436Z,9.39
2023-04-19T06:14:37.492Z,9.33
2023-04-19T06:15:38.055Z,9.34
2023-04-19T06:16:39.406Z,9.3
2023-04-19T06:17:40.092Z,9.36
2023-04-19T06:18:40.191Z,9.34
2023-04-19T06:19:40.726Z,9.33
2023-04-19T06:20:41.630Z,9.29
2023-04-19T06:21:41.962Z,9.29
2023-04-19T06:22:42.892Z,9.27
2023-04-19T06:23:43.333Z,9.27
2023-04-19T06:24:44.458Z,9.24
2023-04-19T06:25:44.652Z,9.26
2023-04-19T06:26:45.392Z,9.31
2023-04-19T06:27:46.318Z,9.3
2023-04-19T06:28:47.223Z,9.3
2023-04-19T06:29:50.591Z,9.3
2023-04-19T06:30:48.081Z,9.29
2023-04-19T06:31:48.251Z,9.31
2023-04-19T06:32:48.458Z,9.27
2023-04-19T06:33:48.840Z,9.26
2023-04-19T06:34:49.795Z,9.26
2023-04-19T06:35:49.758Z,9.26
2023-04-19T06:36:50.054Z,9.29
2023-04-19T06:37:52.495Z,9.29
2023-04-19T06:38:50.974Z,9.3
2023-04-19T06:39:51.716Z,9.3
2023-04-19T06:40:52.273Z,9.33
2023-04-19T06:41:52.614Z,9.34
2023-04-19T06:42:53.390Z,9.37
2023-04-19T06:43:53.938Z,9.4
2023-04-19T06:44:54.676Z,9.34
2023-04-19T06:45:55.794Z,9.45
2023-04-19T06:46:56.159Z,9.45
2023-04-19T06:47:56.576Z,9.51
2023-04-19T06:48:57.229Z,9.51
2023-04-19T06:49:58.366Z,9.52
2023-04-19T06:50:59.095Z,9.49
2023-04-19T06:51:59.635Z,9.52
2023-04-19T06:53:02.284Z,9.54
2023-04-19T06:54:01.584Z,9.63
2023-04-19T06:55:01.837Z,9.58
2023-04-19T06:56:02.651Z,9.67
2023-04-19T06:57:03.580Z,9.59
2023-04-19T06:58:03.401Z,9.67
2023-04-19T06:59:04.133Z,9.64
2023-04-19T07:00:04.880Z,9.62
2023-04-19T07:01:05.791Z,9.59
2023-04-19T07:02:06.115Z,9.67
2023-04-19T07:03:06.640Z,9.73
2023-04-19T07:04:06.844Z,9.7
2023-04-19T07:05:07.155Z,9.76
2023-04-19T07:06:07.500Z,9.74
2023-04-19T07:07:07.702Z,9.74
2023-04-19T07:08:08.792Z,9.82
2023-04-19T07:09:09.017Z,9.85
2023-04-19T07:10:09.955Z,9.85
2023-04-19T07:11:10.966Z,9.9
2023-04-19T07:12:10.858Z,9.77
2023-04-19T07:13:11.869Z,9.82
2023-04-19T07:14:12.594Z,9.84
2023-04-19T07:15:13.110Z,9.85
2023-04-19T07:16:13.909Z,9.94
2023-04-19T07:17:14.882Z,9.95
2023-04-19T07:18:15.064Z,9.97
2023-04-19T07:19:15.174Z,9.95
2023-04-19T07:20:16.150Z,9.95
2023-04-19T07:21:16.933Z,9.95
2023-04-19T07:22:19.102Z,10.05
2023-04-19T07:25:20.177Z,10.05
2023-04-19T07:26:20.971Z,10.05
2023-04-19T07:27:20.983Z,10.02
2023-04-19T07:28:21.229Z,10.05
2023-04-19T07:29:21.699Z,10.03
2023-04-19T07:30:22.312Z,10.03
2023-04-19T07:31:23.119Z,10.03
2023-04-19T07:32:24.627Z,10.06
2023-04-19T07:33:28.561Z,10.13
2023-04-19T07:35:26.000Z,10.05
2023-04-19T07:36:27.102Z,10.18
2023-04-19T07:37:27.237Z,10.17
2023-04-19T07:38:27.142Z,10.18
2023-04-19T07:39:27.541Z,10.1
2023-04-19T07:40:28.417Z,10.1
2023-04-19T07:41:29.466Z,10.12
2023-04-19T07:42:29.617Z,10.09
2023-04-19T07:43:29.924Z,10.13
2023-04-19T07:44:30.751Z,10.12
2023-04-19T07:45:31.479Z,10.12
2023-04-19T07:46:32.253Z,10.15
2023-04-19T07:47:32.436Z,10.18
2023-04-19T07:48:33.361Z,10.27
2023-04-19T07:49:34.123Z,10.23
2023-04-19T07:50:34.677Z,10.3
2023-04-19T07:51:35.396Z,10.25
2023-04-19T07:52:35.520Z,10.28
2023-04-19T07:53:36.209Z,10.33
2023-04-19T07:54:36.881Z,10.36
2023-04-19T07:55:37.798Z,10.41
2023-04-19T07:56:39.100Z,10.36
2023-04-19T07:57:38.870Z,10.36
2023-04-19T07:58:40.129Z,10.42
2023-04-19T07:59:40.700Z,10.57
2023-04-19T08:00:41.699Z,10.42
2023-04-19T08:01:43.466Z,10.42
2023-04-19T08:02:43.556Z,10.38
2023-04-19T08:03:43.865Z,10.48
2023-04-19T08:04:44.419Z,10.43
2023-04-19T08:05:44.276Z,10.46
2023-04-19T08:06:44.840Z,10.55
2023-04-19T08:07:44.548Z,10.41
2023-04-19T08:08:45.257Z,10.43
2023-04-19T08:09:46.392Z,10.45
2023-04-19T08:10:46.580Z,10.42
2023-04-19T08:11:47.362Z,10.33
2023-04-19T08:13:06.422Z,10.43
2023-04-19T08:14:22.131Z,10.43
2023-04-19T08:17:29.346Z,10.53
2023-04-19T08:18:54.502Z,10.53
2023-04-19T08:19:55.666Z,10.53
2023-04-19T08:20:55.475Z,10.53
2023-04-19T08:21:56.183Z,10.48
2023-04-19T08:23:00.554Z,10.55
2023-04-19T08:24:00.135Z,10.49
2023-04-19T08:26:00.062Z,10.58
2023-04-19T08:27:01.044Z,10.51
2023-04-19T08:28:01.582Z,10.53
2023-04-19T08:29:03.020Z,10.58
2023-04-19T08:30:02.630Z,10.53
2023-04-19T08:31:03.403Z,10.59
2023-04-19T08:32:04.551Z,10.53
2023-04-19T08:33:04.814Z,10.53
2023-04-19T08:34:04.806Z,10.58
2023-04-19T08:35:05.417Z,10.61
2023-04-19T08:36:05.984Z,10.59
2023-04-19T08:37:10.976Z,10.62
2023-04-19T08:38:11.945Z,10.61
2023-04-19T08:39:34.113Z,10.68
2023-04-19T08:41:14.521Z,10.71
2023-04-19T08:42:37.025Z,10.65
2023-04-19T08:44:29.103Z,10.62
2023-04-19T08:45:34.063Z,10.64
2023-04-19T08:48:39.174Z,10.67
2023-04-19T08:49:43.423Z,10.62
2023-04-19T08:51:05.925Z,10.57
2023-04-19T08:53:00.820Z,10.67
2023-04-19T08:54:41.593Z,10.75
2023-04-19T08:56:10.356Z,10.67
2023-04-19T08:56:43.435Z,10.72
2023-04-19T08:57:43.908Z,10.79
2023-04-19T08:59:18.438Z,10.77
2023-04-19T09:00:46.587Z,10.83
2023-04-19T09:01:48.734Z,10.86
2023-04-19T09:05:50.186Z,10.86
2023-04-19T09:06:49.617Z,10.86
2023-04-19T09:07:50.800Z,10.9
2023-04-19T09:08:51.588Z,10.87
2023-04-19T09:10:04.265Z,10.95
2023-04-19T09:11:54.394Z,10.92
2023-04-19T09:12:54.572Z,10.86
2023-04-19T09:13:56.927Z,10.92
2023-04-19T09:15:07.305Z,10.94
2023-04-19T09:16:56.638Z,10.89
2023-04-19T09:17:57.439Z,10.98
2023-04-19T09:19:24.612Z,10.9
2023-04-19T09:20:58.907Z,10.95
2023-04-19T09:21:59.070Z,10.86
2023-04-19T09:22:59.773Z,10.89
2023-04-19T09:24:03.589Z,10.94
2023-04-19T09:25:46.873Z,11
2023-04-19T09:26:30.961Z,11.01
2023-04-19T09:27:32.235Z,11.05
2023-04-19T09:28:32.978Z,11.02
2023-04-19T09:29:32.885Z,11.05
2023-04-19T09:31:03.418Z,11.15
2023-04-19T09:31:58.203Z,11.15
2023-04-19T09:32:58.153Z,11.15
2023-04-19T09:33:58.501Z,11.13
2023-04-19T09:34:59.470Z,11.15
2023-04-19T09:35:59.379Z,11.15
2023-04-19T09:37:32.849Z,11.15
2023-04-19T09:38:12.820Z,11.15
2023-04-19T09:39:13.353Z,11.16
2023-04-19T09:40:13.000Z,11.08
2023-04-19T09:41:13.980Z,11.15
2023-04-19T09:42:20.697Z,11.05
2023-04-19T09:45:34.383Z,11.05
2023-04-19T09:47:17.405Z,10.94
2023-04-19T09:48:17.589Z,10.94
2023-04-19T09:49:49.324Z,11.04
2023-04-19T09:51:39.743Z,10.92
2023-04-19T09:52:39.910Z,11
2023-04-19T09:53:41.205Z,10.98
2023-04-19T09:54:41.123Z,11.01
2023-04-19T09:56:03.764Z,10.94
2023-04-19T09:57:42.037Z,10.9
2023-04-19T09:59:20.190Z,10.83
2023-04-19T10:01:14.735Z,10.98
2023-04-19T10:02:44.981Z,10.86
2023-04-19T10:03:46.886Z,11
2023-04-19T10:05:20.156Z,10.98
2023-04-19T10:07:29.929Z,10.87
2023-04-19T10:08:48.008Z,10.9
2023-04-19T10:10:19.022Z,10.84
2023-04-19T10:12:52.132Z,10.72
2023-04-19T10:13:33.171Z,10.72
2023-04-19T10:14:34.260Z,10.72
2023-04-19T10:15:53.730Z,10.69
2023-04-19T10:17:35.403Z,10.75
2023-04-19T10:18:36.574Z,10.72
2023-04-19T10:19:36.548Z,10.61
2023-04-19T10:20:37.444Z,10.58
2023-04-19T10:21:37.515Z,10.67
2023-04-19T10:22:38.356Z,10.77
2023-04-19T10:23:39.480Z,10.57
2023-04-19T10:24:40.815Z,10.61
2023-04-19T10:25:40.677Z,10.68
2023-04-19T10:26:41.493Z,10.59
2023-04-19T10:27:42.416Z,10.76
2023-04-19T10:28:42.487Z,10.69
2023-04-19T10:29:43.474Z,10.67
2023-04-19T10:30:44.253Z,10.62
2023-04-19T10:31:44.313Z,10.69
2023-04-19T10:32:45.202Z,10.61
2023-04-19T10:33:46.087Z,10.71
2023-04-19T10:34:47.659Z,10.69
2023-04-19T10:35:47.680Z,10.71
2023-04-19T10:36:48.635Z,10.72
2023-04-19T10:37:48.636Z,10.71
2023-04-19T10:38:49.505Z,10.68
2023-04-19T10:39:50.087Z,10.75
2023-04-19T10:40:51.035Z,10.69
2023-04-19T10:41:51.972Z,10.68
2023-04-19T10:42:52.976Z,10.65
2023-04-19T10:43:53.159Z,10.71
2023-04-19T10:44:53.921Z,10.75
2023-04-19T10:45:54.260Z,10.75
2023-04-19T10:46:54.341Z,10.79
2023-04-19T10:47:54.484Z,10.75
2023-04-19T10:48:54.865Z,10.79
2023-04-19T10:49:55.076Z,10.79
2023-04-19T10:50:55.572Z,10.71
2023-04-19T10:51:56.823Z,10.79
2023-04-19T10:52:56.554Z,10.8
2023-04-19T10:53:57.532Z,10.77
2023-04-19T10:54:57.801Z,10.76
2023-04-19T10:55:59.241Z,10.84
2023-04-19T10:57:59.735Z,10.76
2023-04-19T10:59:00.900Z,10.71
2023-04-19T11:00:01.134Z,10.75
2023-04-19T11:01:01.954Z,10.79
2023-04-19T11:02:03.082Z,10.8
2023-04-19T11:03:03.729Z,10.82
2023-04-19T11:04:04.171Z,10.79
2023-04-19T11:05:05.194Z,10.79
2023-04-19T11:06:04.922Z,10.75
2023-04-19T11:07:05.495Z,10.79
2023-04-19T11:08:06.376Z,10.77
2023-04-19T11:09:06.647Z,10.77
2023-04-19T11:10:07.577Z,10.83
2023-04-19T11:11:08.436Z,10.75
2023-04-19T11:12:09.123Z,10.76
2023-04-19T11:13:10.276Z,10.8
2023-04-19T11:14:11.212Z,10.75
2023-04-19T11:15:12.996Z,10.79
2023-04-19T11:16:13.800Z,10.76
2023-04-19T11:17:13.963Z,10.79
2023-04-19T11:18:18.889Z,10.86
2023-04-19T11:20:15.452Z,10.94
2023-04-19T11:21:15.981Z,10.95
2023-04-19T11:22:16.938Z,10.9
2023-04-19T11:23:17.594Z,10.89
2023-04-19T11:24:18.297Z,10.92
2023-04-19T11:25:19.317Z,10.97
2023-04-19T11:26:20.059Z,10.98
2023-04-19T11:27:20.585Z,11.04
2023-04-19T11:28:21.485Z,11.08
2023-04-19T11:29:22.103Z,11.08
2023-04-19T11:30:23.757Z,11.12
2023-04-19T11:31:24.024Z,11
2023-04-19T11:32:24.379Z,11.05
2023-04-19T11:33:24.020Z,11.08
2023-04-19T11:34:24.906Z,11.13
2023-04-19T11:35:25.252Z,11.18
2023-04-19T11:36:25.606Z,11.13
2023-04-19T11:37:26.373Z,11.07
2023-04-19T11:38:27.401Z,11.07
2023-04-19T11:39:28.303Z,11.05
2023-04-19T11:40:29.014Z,11.02
2023-04-19T11:41:29.933Z,11.01
2023-04-19T11:42:30.361Z,11.02
2023-04-19T11:43:30.326Z,10.97
2023-04-19T11:44:31.268Z,10.89
2023-04-19T11:45:40.315Z,10.95
2023-04-19T11:47:32.795Z,11.02
2023-04-19T11:48:32.672Z,11.08
2023-04-19T11:49:33.488Z,11
2023-04-19T11:50:34.321Z,10.98
2023-04-19T11:51:35.396Z,11.05
2023-04-19T11:52:36.424Z,11.05
2023-04-19T11:53:37.151Z,11.02
2023-04-19T11:54:38.210Z,11
2023-04-19T11:55:39.014Z,11.08
2023-04-19T11:56:39.963Z,11.07
2023-04-19T11:57:42.073Z,11.04
2023-04-19T11:58:41.054Z,10.97
2023-04-19T11:59:42.022Z,10.95
2023-04-19T12:00:42.436Z,10.92
2023-04-19T12:01:42.845Z,11.01
2023-04-19T12:02:43.990Z,10.97
2023-04-19T12:03:44.641Z,10.89
2023-04-19T12:04:45.081Z,10.86
2023-04-19T12:05:45.037Z,10.89
2023-04-19T12:06:45.195Z,10.9
2023-04-19T12:07:45.279Z,10.92
2023-04-19T12:08:46.182Z,10.86
2023-04-19T12:09:47.301Z,10.8
2023-04-19T12:10:47.389Z,10.71
2023-04-19T12:11:47.729Z,10.72
2023-04-19T12:12:48.557Z,10.69
2023-04-19T12:13:49.090Z,10.59
2023-04-19T12:14:49.845Z,10.75
2023-04-19T12:15:50.537Z,10.72
2023-04-19T12:16:51.339Z,10.82
2023-04-19T12:18:03.252Z,10.77
2023-04-19T12:19:53.532Z,10.8
2023-04-19T12:20:53.722Z,10.84
2023-04-19T12:21:54.030Z,10.89
2023-04-19T12:23:54.399Z,10.86
2023-04-19T12:24:55.540Z,10.89
2023-04-19T12:25:56.267Z,10.83
2023-04-19T12:27:05.344Z,10.82
2023-04-19T12:27:57.134Z,10.82
2023-04-19T12:28:58.008Z,10.8
2023-04-19T12:29:59.277Z,10.75
2023-04-19T12:31:00.104Z,10.8
2023-04-19T12:32:00.897Z,10.86
2023-04-19T12:33:01.298Z,10.86
2023-04-19T12:34:01.504Z,10.84
2023-04-19T12:35:01.926Z,10.86
2023-04-19T12:36:02.322Z,10.84
2023-04-19T12:37:03.279Z,10.92
2023-04-19T12:38:03.461Z,10.97
2023-04-19T12:39:04.429Z,10.86
2023-04-19T12:40:04.442Z,10.89
2023-04-19T12:41:05.657Z,10.98
2023-04-19T12:42:06.811Z,11.07
2023-04-19T12:43:07.184Z,11.07
2023-04-19T12:44:07.555Z,11.1
2023-04-19T12:45:07.628Z,11.12
2023-04-19T12:46:09.063Z,11.13
2023-04-19T12:47:09.358Z,11.13
2023-04-19T12:48:10.530Z,11.16
2023-04-19T12:49:11.248Z,11.12
2023-04-19T12:50:11.435Z,11.08
2023-04-19T12:51:12.053Z,11.1
2023-04-19T12:52:13.206Z,11.16
2023-04-19T12:53:13.396Z,11.13
2023-04-19T12:54:13.776Z,11.13
2023-04-19T12:55:13.885Z,11.1
2023-04-19T12:56:15.026Z,11.1
2023-04-19T12:57:15.243Z,11.13
2023-04-19T12:58:15.388Z,11.1
2023-04-19T12:59:16.412Z,11.07
2023-04-19T13:00:15.635Z,11
2023-04-19T13:01:16.738Z,10.98
2023-04-19T13:02:17.013Z,10.92
2023-04-19T13:03:17.949Z,10.95
2023-04-19T13:04:20.110Z,10.9
2023-04-19T13:05:18.585Z,10.86
2023-04-19T13:06:19.203Z,10.89
2023-04-19T13:07:20.345Z,10.9
2023-04-19T13:08:44.497Z,10.9
2023-04-19T13:09:22.135Z,10.97
2023-04-19T13:10:22.793Z,10.89
2023-04-19T13:11:24.206Z,10.82
2023-04-19T13:12:24.274Z,10.82
2023-04-19T13:13:24.729Z,10.86
2023-04-19T13:14:25.864Z,10.84
2023-04-19T13:15:26.395Z,10.84
2023-04-19T13:16:27.643Z,10.84
2023-04-19T13:17:27.255Z,10.92
2023-04-19T13:18:28.518Z,10.94
2023-04-19T13:19:29.233Z,10.87
2023-04-19T13:20:29.376Z,10.94
2023-04-19T13:21:30.112Z,10.82
2023-04-19T13:22:31.066Z,10.83
2023-04-19T13:23:31.586Z,10.84
2023-04-19T13:24:31.934Z,10.86
2023-04-19T13:25:32.651Z,10.87
2023-04-19T13:26:33.346Z,10.84
2023-04-19T13:27:33.785Z,10.87
2023-04-19T13:28:34.332Z,10.82
2023-04-19T13:29:35.044Z,10.92
2023-04-19T13:30:35.776Z,10.86
2023-04-19T13:31:36.072Z,10.82
2023-04-19T13:32:36.206Z,10.84
2023-04-19T13:33:36.482Z,10.82
2023-04-19T13:34:37.228Z,10.9
2023-04-19T13:35:37.829Z,10.89
2023-04-19T13:36:38.980Z,10.84
2023-04-19T13:37:39.703Z,10.89
2023-04-19T13:38:40.447Z,10.82
2023-04-19T13:39:41.462Z,10.9
2023-04-19T13:40:41.608Z,10.92
2023-04-19T13:41:42.355Z,10.86
2023-04-19T13:42:43.321Z,10.94
2023-04-19T13:43:43.866Z,10.9
2023-04-19T13:44:44.208Z,10.98
2023-04-19T13:45:44.546Z,11.07
2023-04-19T13:46:45.706Z,11.08
2023-04-19T13:47:46.745Z,11.01
2023-04-19T13:48:46.670Z,10.98
2023-04-19T13:49:47.414Z,10.98
2023-04-19T13:50:51.242Z,11.1
2023-04-19T13:51:56.422Z,11.08
2023-04-19T13:53:50.137Z,11.05
2023-04-19T13:54:51.144Z,11.05
2023-04-19T13:55:51.262Z,11.01
2023-04-19T13:56:52.993Z,11.01
2023-04-19T13:57:53.199Z,11.04
2023-04-19T13:58:53.141Z,11.07
2023-04-19T13:59:53.649Z,11